首页
METAR-TAF:

METAR-TAF

机场 :

黑堡, 弗吉尼亚州, 美国

纬度: 37-13N, 经度: 080-25W, 海拔: 650米

当前天气观测

该预报发布于20分钟前的14:15 UTC
风速8节,风向西北
温度 -6°C
湿度 58%
气压 1027 hPa
能見度: 16.1公里
天空无云

METAR: KBCB 201415Z AUTO 32008KT 10SM CLR M06/M13 A3032 RMK AO2 T10591130

时间: 09:35 (14:35 UTC)

预报

该预报发布于3小时和1分钟前的11:34 UTC
预报有效从20日的 12点(UTC)到 21日的 12点(UTC)
风速9节,风向西北,有时为19节阵风
能見度: 10公里
多云层高于2200英尺
从 20日的 1600点(UTC)
风速7节,风向西北
能見度: 10公里
散云层高于3500英尺
从 21日的 0000点(UTC)
风速3节,风向多变
能見度: 10公里
天空无云

TAF: KBCB 201134Z 2012/2112 32009G19KT P6SM BKN022 FM201600 32007KT P6SM SCT035 FM210000 VRB03KT P6SM SKC

超过4000个机场的气象观测和天气预报(METAR&TAF报告)。

可查询的气象台以黄色和红色小点在地图上表示。

将鼠标移到小点上方,可查看气象台名称。

然后点击查看天气观测和预报。

如需切换地图:点击带黑十字的绿色按钮放大地图;点击带横线的绿色按钮缩小地图;或者点击绿色箭头查看邻近地区的地图。


METAR-TAF: